createdAt,value
2022-08-31T00:15:57.614Z,17.42
2022-08-31T00:35:44.678Z,17.05
2022-08-31T00:55:04.012Z,16.81
2022-08-31T01:15:04.819Z,16.73
2022-08-31T01:34:39.865Z,16.73
2022-08-31T01:55:19.268Z,16.72
2022-08-31T02:16:10.120Z,16.55
2022-08-31T02:35:19.237Z,16.5
2022-08-31T02:54:49.964Z,16.5
2022-08-31T03:14:46.796Z,16.44
2022-08-31T03:35:38.787Z,16.61
2022-08-31T03:56:19.257Z,16.84
2022-08-31T04:15:43.975Z,16.86
2022-08-31T04:34:59.554Z,16.93
2022-08-31T04:55:54.358Z,16.85
2022-08-31T05:15:03.725Z,16.87
2022-08-31T05:36:08.029Z,16.87
2022-08-31T05:55:13.345Z,17.09
2022-08-31T06:15:34.843Z,17.51
2022-08-31T06:34:59.602Z,17.87
2022-08-31T06:56:36.479Z,18.09
2022-08-31T07:16:06.581Z,18.41
2022-08-31T07:36:25.036Z,18.99
2022-08-31T07:56:16.342Z,19.35
2022-08-31T08:36:11.258Z,19.65
2022-08-31T08:56:17.412Z,19.8
2022-08-31T09:14:46.947Z,20.11
2022-08-31T09:36:25.754Z,20.61
2022-08-31T09:55:52.416Z,20.93
2022-08-31T10:16:31.976Z,21.27
2022-08-31T10:36:05.411Z,22.33
2022-08-31T10:56:11.010Z,23.01
2022-08-31T11:16:30.807Z,22.82
2022-08-31T11:36:17.634Z,21.68
2022-08-31T11:55:03.301Z,22.32
2022-08-31T12:14:56.870Z,22.54
2022-08-31T12:36:09.271Z,21.62
2022-08-31T12:55:48.180Z,21.6
2022-08-31T13:15:54.179Z,21.61
2022-08-31T13:35:54.010Z,21.42
2022-08-31T13:55:30.290Z,21.69
2022-08-31T14:15:08.200Z,21.95
2022-08-31T14:35:11.679Z,21.42
2022-08-31T14:55:07.420Z,21.32
2022-08-31T15:16:19.496Z,21.02
2022-08-31T15:35:31.983Z,20.81
2022-08-31T15:55:03.126Z,20.65
2022-08-31T16:16:21.656Z,20.4
2022-08-31T16:35:54.625Z,20.24
2022-08-31T16:56:21.466Z,20.09
2022-08-31T17:16:01.190Z,19.9
2022-08-31T17:35:08.091Z,19.62
2022-08-31T17:55:58.676Z,19.37
2022-08-31T18:16:21.299Z,19.19
2022-08-31T18:36:37.436Z,19.04
2022-08-31T18:55:21.573Z,18.96
2022-08-31T19:16:17.377Z,18.89
2022-08-31T19:35:02.777Z,18.79
2022-08-31T19:55:00.731Z,18.68
2022-08-31T20:15:26.459Z,18.58
2022-08-31T20:35:53.652Z,18.47
2022-08-31T20:55:20.588Z,18.35
2022-08-31T21:15:49.411Z,18.28
2022-08-31T21:35:58.633Z,18.19
2022-08-31T21:55:04.778Z,18.07
2022-08-31T22:16:06.602Z,17.97
2022-08-31T22:35:54.031Z,17.89
2022-08-31T22:55:04.433Z,17.79
2022-08-31T23:14:58.250Z,17.72
2022-08-31T23:35:32.771Z,17.56
2022-08-31T23:55:33.846Z,17.43
